Time;durP1;ratioP1;P1;durP2;ratioP2;P2;SDS_P1;SDS_P2;PMS_P1;PMS_P2;Temp;Humidity;BMP_temperature;BMP_pressure;BME280_temperature;BME280_humidity;BME280_pressure;Samples;Min_cycle;Max_cycle;Signal;HPM_P1;HPM_P2
2023/11/27 00:02:11;;;;;;;10.32;7.05;;;3.60;98.60;;;;;;6269009;22;20118;-71
2023/11/27 00:04:57;;;;;;;8.80;6.20;;;3.60;98.70;;;;;;6268334;22;20382;-71
2023/11/27 00:07:43;;;;;;;18.95;7.65;;;3.60;98.70;;;;;;6269079;22;20069;-71
2023/11/27 00:10:28;;;;;;;10.85;7.10;;;3.60;98.70;;;;;;6268958;22;20282;-70
2023/11/27 00:13:14;;;;;;;10.70;7.43;;;3.60;98.70;;;;;;6269883;22;20034;-70
2023/11/27 00:16:00;;;;;;;10.05;6.70;;;3.60;98.80;;;;;;6269522;22;20007;-64
2023/11/27 00:18:46;;;;;;;9.88;6.85;;;3.60;98.80;;;;;;6269063;22;20012;-63
2023/11/27 00:21:33;;;;;;;10.38;6.40;;;3.70;98.80;;;;;;6268701;22;20015;-63
2023/11/27 00:24:19;;;;;;;11.90;7.30;;;3.60;98.80;;;;;;6268310;22;20051;-63
2023/11/27 00:27:06;;;;;;;9.35;6.63;;;3.60;98.80;;;;;;6270060;22;20039;-63
2023/11/27 00:29:52;;;;;;;11.88;7.15;;;3.70;98.90;;;;;;6269636;22;20019;-64
2023/11/27 00:32:38;;;;;;;9.32;5.93;;;3.70;98.90;;;;;;6270195;22;20004;-63
2023/11/27 00:35:23;;;;;;;9.13;6.22;;;3.70;98.90;;;;;;6269934;22;20016;-63
2023/11/27 00:38:09;;;;;;;10.88;6.22;;;3.60;98.90;;;;;;6271602;22;20019;-64
2023/11/27 00:40:55;;;;;;;9.68;7.25;;;3.70;99.00;;;;;;6271911;22;20015;-64
2023/11/27 00:43:41;;;;;;;11.45;6.47;;;3.70;99.00;;;;;;6272365;22;20464;-63
2023/11/27 00:46:27;;;;;;;8.70;6.13;;;3.70;99.00;;;;;;6271760;22;20434;-64
2023/11/27 00:49:13;;;;;;;16.52;5.97;;;3.70;99.00;;;;;;6270972;22;20119;-64
2023/11/27 00:51:59;;;;;;;9.50;6.63;;;3.70;99.00;;;;;;6272266;22;20007;-63
2023/11/27 00:54:47;;;;;;;10.80;6.70;;;3.70;99.10;;;;;;6269499;22;20372;-79
2023/11/27 00:57:33;;;;;;;11.13;6.15;;;3.70;99.10;;;;;;6273085;22;20008;-78
2023/11/27 01:00:19;;;;;;;10.38;6.18;;;3.70;99.10;;;;;;6271541;22;20322;-78
2023/11/27 01:03:06;;;;;;;9.57;6.82;;;3.70;99.10;;;;;;6272821;22;20012;-77
2023/11/27 01:05:52;;;;;;;8.70;5.22;;;3.70;99.10;;;;;;6271411;22;20043;-77
2023/11/27 01:08:38;;;;;;;8.00;5.63;;;3.70;99.10;;;;;;6269874;22;20019;-78
2023/11/27 01:11:24;;;;;;;10.13;6.15;;;3.70;99.20;;;;;;6272756;22;20004;-80
2023/11/27 01:14:10;;;;;;;10.48;6.05;;;3.70;99.20;;;;;;6270560;22;20012;-79
2023/11/27 01:16:56;;;;;;;9.23;5.38;;;3.70;99.20;;;;;;6270903;22;20011;-79
2023/11/27 01:19:42;;;;;;;8.52;5.35;;;3.70;99.20;;;;;;6271798;22;20083;-80
2023/11/27 01:22:28;;;;;;;8.63;5.13;;;3.80;99.20;;;;;;6273197;22;20014;-63
2023/11/27 01:25:15;;;;;;;7.22;4.95;;;3.80;99.20;;;;;;6248658;22;20008;-63
2023/11/27 01:28:01;;;;;;;9.80;5.25;;;3.80;99.30;;;;;;6270034;22;20023;-64
2023/11/27 01:30:47;;;;;;;7.55;5.25;;;3.80;99.30;;;;;;6271347;22;20399;-64
2023/11/27 01:33:33;;;;;;;8.95;6.03;;;3.80;99.30;;;;;;6271018;22;20445;-64
2023/11/27 01:36:19;;;;;;;16.83;6.15;;;3.80;99.30;;;;;;6270929;22;20433;-64
2023/11/27 01:39:05;;;;;;;7.70;5.20;;;3.90;99.30;;;;;;6272294;22;20353;-64
2023/11/27 01:41:51;;;;;;;8.18;5.57;;;3.80;99.30;;;;;;6271923;22;20438;-64
2023/11/27 01:44:37;;;;;;;10.25;6.38;;;3.80;99.30;;;;;;6271168;22;20016;-65
2023/11/27 01:47:26;;;;;;;9.75;5.93;;;3.80;99.30;;;;;;6271344;22;20003;-65
2023/11/27 01:50:13;;;;;;;9.75;6.32;;;3.90;99.40;;;;;;6270884;22;20046;-74
2023/11/27 01:53:00;;;;;;;11.55;7.00;;;3.80;99.40;;;;;;6271233;22;20358;-75
2023/11/27 01:55:46;;;;;;;11.73;6.72;;;3.90;99.40;;;;;;6272627;22;20014;-75
2023/11/27 01:58:32;;;;;;;11.40;6.78;;;3.90;99.40;;;;;;6271537;22;20011;-76
2023/11/27 02:01:18;;;;;;;11.18;7.40;;;3.90;99.40;;;;;;6268974;22;20003;-75
2023/11/27 02:04:04;;;;;;;9.52;6.93;;;3.90;99.40;;;;;;6271194;22;20011;-75
2023/11/27 02:06:51;;;;;;;12.02;6.93;;;3.80;99.40;;;;;;6271682;22;20008;-65
2023/11/27 02:09:37;;;;;;;11.23;7.15;;;3.80;99.40;;;;;;6270750;22;20065;-64
2023/11/27 02:12:23;;;;;;;9.60;6.20;;;3.90;99.40;;;;;;6271692;22;20035;-64
2023/11/27 02:15:09;;;;;;;9.10;6.43;;;3.90;99.40;;;;;;6270615;22;20011;-65
2023/11/27 02:17:55;;;;;;;10.05;6.65;;;3.90;99.40;;;;;;6270140;22;20066;-65
2023/11/27 02:20:41;;;;;;;10.02;7.78;;;3.90;99.40;;;;;;6270994;22;20015;-65
2023/11/27 02:23:27;;;;;;;11.07;7.55;;;3.80;99.40;;;;;;6271442;22;20011;-65
2023/11/27 02:26:13;;;;;;;8.55;6.95;;;3.80;99.40;;;;;;6270055;22;20007;-65
2023/11/27 02:28:59;;;;;;;10.15;7.32;;;3.80;99.40;;;;;;6270783;22;20023;-64
2023/11/27 02:31:45;;;;;;;11.93;6.95;;;3.80;99.40;;;;;;6269470;22;20011;-65
2023/11/27 02:34:31;;;;;;;10.05;6.93;;;3.80;99.40;;;;;;6269490;22;20015;-65
2023/11/27 02:37:19;;;;;;;10.35;7.97;;;3.80;99.40;;;;;;6270377;22;20011;-75
2023/11/27 02:40:05;;;;;;;10.50;6.93;;;3.80;99.40;;;;;;6270666;22;20065;-75
2023/11/27 02:42:51;;;;;;;9.82;7.00;;;3.80;99.40;;;;;;6269143;22;20019;-78
2023/11/27 02:45:37;;;;;;;10.52;7.50;;;3.70;99.40;;;;;;6270417;22;20471;-82
2023/11/27 02:48:23;;;;;;;13.48;8.20;;;3.70;99.40;;;;;;6272032;22;20020;-82
2023/11/27 02:51:09;;;;;;;12.18;7.93;;;3.70;99.40;;;;;;6271152;22;20439;-80
2023/11/27 02:53:55;;;;;;;13.65;7.80;;;3.70;99.40;;;;;;6269568;22;20011;-82
2023/11/27 02:56:41;;;;;;;11.48;7.95;;;3.60;99.40;;;;;;6272079;22;20011;-82
2023/11/27 02:59:27;;;;;;;10.48;8.20;;;3.60;99.40;;;;;;6268402;22;20085;-79
2023/11/27 03:02:13;;;;;;;10.93;7.78;;;3.60;99.40;;;;;;6268609;22;20008;-78
2023/11/27 03:04:59;;;;;;;13.63;7.93;;;3.60;99.40;;;;;;6269184;22;20015;-78
2023/11/27 03:07:45;;;;;;;12.60;8.15;;;3.50;99.40;;;;;;6269939;22;20011;-78
2023/11/27 03:10:31;;;;;;;11.80;7.93;;;3.50;99.50;;;;;;6270083;22;20026;-78
2023/11/27 03:13:18;;;;;;;12.15;8.38;;;3.50;99.50;;;;;;6268659;22;20039;-78
2023/11/27 03:16:04;;;;;;;12.98;8.50;;;3.50;99.50;;;;;;6271404;22;20039;-79
2023/11/27 03:18:50;;;;;;;9.43;7.63;;;3.50;99.60;;;;;;6270652;22;20012;-78
2023/11/27 03:21:36;;;;;;;10.77;7.68;;;3.50;99.60;;;;;;6268430;22;20019;-78
2023/11/27 03:24:22;;;;;;;14.05;8.07;;;3.50;99.60;;;;;;6270281;22;20012;-78
2023/11/27 03:27:08;;;;;;;13.43;8.25;;;3.50;99.60;;;;;;6270734;22;20422;-78
2023/11/27 03:29:54;;;;;;;13.65;8.80;;;3.50;99.60;;;;;;6270508;22;20023;-79
2023/11/27 03:32:40;;;;;;;12.85;8.23;;;3.50;99.60;;;;;;6270988;22;20011;-81
2023/11/27 03:35:26;;;;;;;12.60;8.32;;;3.50;99.60;;;;;;6268748;22;20112;-80
2023/11/27 03:38:11;;;;;;;15.52;8.30;;;3.40;99.60;;;;;;6270867;22;20015;-79
2023/11/27 03:40:58;;;;;;;13.45;8.77;;;3.40;99.60;;;;;;6269920;22;20011;-77
2023/11/27 03:43:43;;;;;;;14.32;8.57;;;3.40;99.60;;;;;;6270092;22;20018;-78
2023/11/27 03:46:29;;;;;;;17.80;9.95;;;3.30;99.60;;;;;;6271646;22;20011;-79
2023/11/27 03:49:16;;;;;;;14.35;9.05;;;3.20;99.50;;;;;;6248302;22;20028;-78
2023/11/27 03:52:02;;;;;;;15.68;9.32;;;3.20;99.50;;;;;;6269226;22;20076;-78
2023/11/27 03:54:49;;;;;;;15.25;8.60;;;3.10;99.60;;;;;;6272469;22;20330;-78
2023/11/27 03:57:35;;;;;;;12.55;8.63;;;3.10;99.60;;;;;;6268574;22;20008;-77
2023/11/27 04:00:21;;;;;;;13.23;8.23;;;3.00;99.60;;;;;;6270011;22;20043;-78
2023/11/27 04:03:07;;;;;;;13.48;8.25;;;3.00;99.60;;;;;;6270673;22;20445;-77
2023/11/27 04:05:53;;;;;;;13.27;7.78;;;3.00;99.70;;;;;;6269526;22;20023;-77
2023/11/27 04:08:39;;;;;;;12.43;7.75;;;3.00;99.80;;;;;;6269361;22;20020;-77
2023/11/27 04:11:27;;;;;;;11.32;7.15;;;2.90;99.80;;;;;;6271304;22;20433;-85
2023/11/27 04:14:13;;;;;;;9.80;5.80;;;3.00;99.90;;;;;;6273745;22;20019;-79
2023/11/27 04:16:58;;;;;;;12.77;7.15;;;2.90;99.90;;;;;;6275009;22;20005;-80
2023/11/27 04:19:44;;;;;;;10.30;6.82;;;2.90;99.90;;;;;;6275689;22;20011;-80
2023/11/27 04:22:33;;;;;;;10.77;7.03;;;2.90;99.90;;;;;;6252127;22;20008;-80
2023/11/27 04:25:19;;;;;;;12.70;7.75;;;2.90;99.90;;;;;;6274864;22;20095;-80
2023/11/27 04:28:05;;;;;;;13.80;8.75;;;3.00;99.90;;;;;;6276216;22;20326;-80
2023/11/27 04:30:51;;;;;;;14.85;8.90;;;3.00;99.90;;;;;;6273370;22;20012;-64
2023/11/27 04:33:37;;;;;;;14.35;9.88;;;3.00;99.90;;;;;;6270309;22;20022;-64
2023/11/27 04:36:23;;;;;;;14.43;9.18;;;3.00;99.90;;;;;;6272836;22;20015;-65
2023/11/27 04:39:10;;;;;;;13.70;7.85;;;3.00;99.90;;;;;;6271420;22;20333;-64
2023/11/27 04:41:56;;;;;;;11.30;7.07;;;3.00;99.90;;;;;;6269009;22;20008;-64
2023/11/27 04:44:42;;;;;;;10.75;6.50;;;3.00;99.90;;;;;;6270639;22;20323;-64
2023/11/27 04:47:28;;;;;;;9.65;7.20;;;3.00;99.90;;;;;;6271828;22;20392;-64
2023/11/27 04:50:15;;;;;;;13.40;6.70;;;3.00;99.90;;;;;;6270064;22;20322;-65
2023/11/27 04:53:01;;;;;;;15.18;7.55;;;3.10;99.90;;;;;;6270752;22;20592;-64
2023/11/27 04:55:47;;;;;;;10.30;6.60;;;3.10;99.90;;;;;;6271472;22;20058;-63
2023/11/27 04:58:33;;;;;;;10.98;6.68;;;3.10;99.90;;;;;;6271184;22;20023;-75
2023/11/27 05:01:19;;;;;;;8.25;5.90;;;3.10;99.90;;;;;;6269500;22;20011;-77
2023/11/27 05:04:05;;;;;;;10.88;6.90;;;3.00;99.90;;;;;;6270034;22;20366;-77
2023/11/27 05:06:51;;;;;;;8.23;5.72;;;3.10;99.90;;;;;;6249340;22;20460;-77
2023/11/27 05:09:40;;;;;;;10.63;6.68;;;3.10;99.90;;;;;;6270892;22;20102;-64
2023/11/27 05:12:26;;;;;;;10.60;6.90;;;3.10;99.90;;;;;;6271717;22;20392;-64
2023/11/27 05:15:12;;;;;;;9.15;6.15;;;3.10;99.90;;;;;;6269933;22;20384;-64
2023/11/27 05:17:58;;;;;;;9.32;6.30;;;3.10;99.90;;;;;;6270887;22;20015;-64
2023/11/27 05:20:44;;;;;;;10.38;6.32;;;3.10;99.90;;;;;;6271347;22;20086;-64
2023/11/27 05:23:30;;;;;;;9.60;6.30;;;3.10;99.90;;;;;;6270015;22;20365;-64
2023/11/27 05:26:16;;;;;;;9.82;6.68;;;3.10;99.90;;;;;;6271029;22;20094;-76
2023/11/27 05:29:02;;;;;;;10.10;6.03;;;3.10;99.90;;;;;;6270572;22;20023;-76
2023/11/27 05:31:48;;;;;;;8.82;6.20;;;3.10;99.90;;;;;;6271065;22;20004;-73
2023/11/27 05:34:37;;;;;;;11.95;6.43;;;3.20;99.90;;;;;;6272278;22;20007;-72
2023/11/27 05:37:23;;;;;;;9.20;6.78;;;3.10;99.90;;;;;;6271900;22;20384;-78
2023/11/27 05:40:10;;;;;;;8.45;6.20;;;3.20;99.90;;;;;;6270018;22;20161;-63
2023/11/27 05:42:56;;;;;;;10.05;6.75;;;3.10;99.90;;;;;;6269390;22;20039;-65
2023/11/27 05:45:45;;;;;;;10.00;7.20;;;3.10;99.90;;;;;;6269002;22;20319;-64
2023/11/27 05:48:31;;;;;;;9.48;6.90;;;3.10;99.90;;;;;;6249168;22;20024;-65
2023/11/27 05:51:17;;;;;;;10.48;7.10;;;3.10;99.90;;;;;;6269988;22;20034;-64
2023/11/27 05:54:04;;;;;;;9.05;6.40;;;3.10;99.90;;;;;;6269909;22;20003;-64
2023/11/27 05:56:50;;;;;;;12.55;7.43;;;3.00;99.90;;;;;;6269995;22;20012;-64
2023/11/27 05:59:37;;;;;;;8.65;5.93;;;3.00;99.90;;;;;;6268408;22;20493;-65
2023/11/27 06:02:23;;;;;;;10.23;6.47;;;3.10;99.90;;;;;;6268420;22;20007;-66
2023/11/27 06:05:09;;;;;;;9.50;6.50;;;3.10;99.90;;;;;;6271205;22;20454;-65
2023/11/27 06:07:55;;;;;;;8.95;6.45;;;3.00;99.90;;;;;;6270031;22;20017;-67
2023/11/27 06:10:41;;;;;;;10.77;6.80;;;3.00;99.90;;;;;;6268858;22;20491;-67
2023/11/27 06:13:27;;;;;;;9.75;6.03;;;3.00;99.90;;;;;;6270336;22;20019;-66
2023/11/27 06:16:13;;;;;;;11.95;6.57;;;3.00;99.90;;;;;;6271310;22;20014;-67
2023/11/27 06:19:00;;;;;;;10.82;6.63;;;3.00;99.90;;;;;;6269944;22;20452;-66
2023/11/27 06:21:46;;;;;;;9.07;6.07;;;3.00;99.90;;;;;;6269461;22;20041;-66
2023/11/27 06:24:32;;;;;;;8.38;6.03;;;3.00;99.90;;;;;;6270942;22;20007;-75
2023/11/27 06:27:18;;;;;;;9.82;6.38;;;3.00;99.90;;;;;;6247056;22;20016;-76
2023/11/27 06:30:04;;;;;;;9.90;6.55;;;3.00;99.90;;;;;;6269595;22;20478;-72
2023/11/27 06:32:50;;;;;;;9.85;6.20;;;2.90;99.90;;;;;;6268083;22;20016;-73
2023/11/27 06:35:36;;;;;;;9.25;5.97;;;3.00;99.90;;;;;;6270787;22;20015;-66
2023/11/27 06:38:22;;;;;;;10.68;6.88;;;2.90;99.90;;;;;;6271184;22;20007;-66
2023/11/27 06:41:08;;;;;;;8.35;5.50;;;3.00;99.90;;;;;;6271030;22;20008;-65
2023/11/27 06:43:55;;;;;;;10.32;6.00;;;3.00;99.90;;;;;;6269330;22;20460;-64
2023/11/27 06:46:41;;;;;;;10.32;6.72;;;3.00;99.90;;;;;;6269743;22;20018;-65
2023/11/27 06:49:27;;;;;;;11.00;6.30;;;2.90;99.90;;;;;;6270723;22;20027;-65
2023/11/27 06:52:13;;;;;;;8.70;5.70;;;3.00;99.90;;;;;;6271413;22;20016;-65
2023/11/27 06:54:59;;;;;;;8.50;5.30;;;3.00;99.90;;;;;;6270975;22;20061;-65
2023/11/27 06:57:45;;;;;;;8.35;5.85;;;3.10;99.90;;;;;;6272227;22;20091;-65
2023/11/27 07:00:31;;;;;;;7.78;5.93;;;3.00;99.90;;;;;;6270706;22;20027;-65
2023/11/27 07:03:17;;;;;;;9.23;5.70;;;3.10;99.90;;;;;;6269492;22;20011;-66
2023/11/27 07:06:04;;;;;;;8.90;6.18;;;3.10;99.90;;;;;;6270814;22;20012;-66
2023/11/27 07:08:50;;;;;;;7.45;5.10;;;3.10;99.90;;;;;;6270101;22;20016;-66
2023/11/27 07:11:37;;;;;;;8.35;5.28;;;3.20;99.90;;;;;;6269522;22;20012;-66
2023/11/27 07:14:22;;;;;;;9.90;5.85;;;3.20;99.90;;;;;;6270401;22;20019;-66
2023/11/27 07:17:08;;;;;;;8.32;5.80;;;3.20;99.90;;;;;;6270278;22;20011;-66
2023/11/27 07:19:54;;;;;;;8.88;5.30;;;3.20;99.90;;;;;;6270488;22;20072;-74
2023/11/27 07:22:42;;;;;;;11.10;6.30;;;3.30;99.90;;;;;;6270859;22;20004;-74
2023/11/27 07:25:28;;;;;;;10.25;6.45;;;3.30;99.90;;;;;;6270143;22;20441;-75
2023/11/27 07:28:15;;;;;;;10.70;6.18;;;3.30;99.90;;;;;;6269623;22;20098;-75
2023/11/27 07:31:02;;;;;;;12.23;6.85;;;3.30;99.90;;;;;;6269237;22;20020;-74
2023/11/27 07:33:49;;;;;;;11.15;8.05;;;3.30;99.90;;;;;;6269776;22;20038;-67
2023/11/27 07:36:35;;;;;;;11.05;7.57;;;3.30;99.90;;;;;;6268768;22;20022;-66
2023/11/27 07:39:22;;;;;;;8.48;6.57;;;3.30;99.90;;;;;;6270377;22;20421;-66
2023/11/27 07:42:09;;;;;;;9.10;6.53;;;3.30;99.90;;;;;;6270517;22;20394;-66
2023/11/27 07:44:54;;;;;;;10.20;6.60;;;3.30;99.90;;;;;;6269841;22;20008;-66
2023/11/27 07:47:40;;;;;;;13.02;6.32;;;3.40;99.90;;;;;;6270777;22;20023;-67
2023/11/27 07:50:29;;;;;;;11.15;6.50;;;3.40;99.90;;;;;;6249296;22;20026;-66
2023/11/27 07:53:17;;;;;;;9.02;6.13;;;3.40;99.90;;;;;;6268981;22;20036;-66
2023/11/27 07:56:03;;;;;;;9.05;6.60;;;3.50;99.90;;;;;;6270338;22;20042;-67
2023/11/27 07:58:49;;;;;;;7.15;5.10;;;3.50;99.90;;;;;;6269717;22;20349;-70
2023/11/27 08:01:35;;;;;;;10.63;6.03;;;3.50;99.90;;;;;;6267703;22;20012;-70
2023/11/27 08:04:21;;;;;;;10.80;5.85;;;3.50;99.90;;;;;;6269528;22;20036;-69
2023/11/27 08:07:09;;;;;;;12.05;5.97;;;3.60;99.90;;;;;;6268550;22;20012;-68
2023/11/27 08:09:57;;;;;;;10.02;5.72;;;3.60;99.90;;;;;;6269240;22;20020;-68
2023/11/27 08:12:43;;;;;;;12.50;5.90;;;3.60;99.90;;;;;;6268042;22;20536;-69
2023/11/27 08:15:29;;;;;;;8.73;5.45;;;3.60;99.90;;;;;;6247270;22;20035;-69
2023/11/27 08:18:15;;;;;;;8.73;5.93;;;3.60;99.90;;;;;;6269211;22;20031;-74
2023/11/27 08:21:05;;;;;;;9.45;5.78;;;3.70;99.90;;;;;;6267151;22;20007;-74
2023/11/27 08:23:51;;;;;;;11.23;5.82;;;3.70;99.90;;;;;;6269286;22;20078;-78
2023/11/27 08:26:40;;;;;;;12.10;6.57;;;3.80;99.90;;;;;;6269208;22;20064;-76
2023/11/27 08:29:26;;;;;;;9.65;5.63;;;3.80;99.90;;;;;;6267398;22;20055;-71
2023/11/27 08:32:12;;;;;;;10.30;6.18;;;3.80;99.90;;;;;;6269421;22;20011;-71
2023/11/27 08:34:58;;;;;;;10.32;6.40;;;3.80;99.90;;;;;;6267306;22;20011;-69
2023/11/27 08:37:44;;;;;;;8.65;5.85;;;3.90;99.90;;;;;;6268382;22;20015;-70
2023/11/27 08:40:30;;;;;;;12.02;6.78;;;3.90;99.90;;;;;;6246493;22;20015;-70
2023/11/27 08:43:16;;;;;;;9.52;6.60;;;3.90;99.90;;;;;;6270232;22;20636;-70
2023/11/27 08:46:02;;;;;;;11.18;7.22;;;3.90;99.90;;;;;;6268148;22;20023;-70
2023/11/27 08:48:48;;;;;;;12.02;6.90;;;3.90;99.90;;;;;;6268653;22;20070;-72
2023/11/27 08:51:34;;;;;;;15.82;6.82;;;3.90;99.90;;;;;;6269486;22;20500;-72
2023/11/27 08:54:20;;;;;;;9.73;6.22;;;3.90;99.90;;;;;;6268397;22;20019;-72
2023/11/27 08:57:08;;;;;;;10.23;6.40;;;3.90;99.90;;;;;;6269120;22;20012;-75
2023/11/27 08:59:54;;;;;;;12.05;7.13;;;3.90;99.90;;;;;;6270759;22;20045;-74
2023/11/27 09:02:40;;;;;;;13.98;6.70;;;3.90;99.90;;;;;;6267521;22;20008;-75
2023/11/27 09:05:30;;;;;;;12.90;7.95;;;4.00;99.90;;;;;;6248352;22;20012;-75
2023/11/27 09:08:17;;;;;;;13.40;7.72;;;4.00;99.90;;;;;;6270892;22;20085;-75
2023/11/27 09:11:03;;;;;;;14.57;8.20;;;4.00;99.90;;;;;;6267747;22;20015;-76
2023/11/27 09:13:50;;;;;;;14.43;9.88;;;4.00;99.90;;;;;;6270680;22;20011;-73
2023/11/27 09:16:36;;;;;;;11.82;8.48;;;4.10;99.90;;;;;;6247221;22;20007;-73
2023/11/27 09:19:22;;;;;;;20.63;10.40;;;4.10;99.90;;;;;;6272294;22;20022;-72
2023/11/27 09:22:08;;;;;;;9.82;6.05;;;4.10;99.90;;;;;;6268140;22;20014;-72
2023/11/27 09:24:54;;;;;;;10.60;6.90;;;4.10;99.90;;;;;;6270160;22;20318;-76
2023/11/27 09:27:40;;;;;;;8.45;5.45;;;4.10;99.90;;;;;;6248061;22;20008;-72
2023/11/27 09:30:26;;;;;;;10.85;6.65;;;4.10;99.90;;;;;;6248393;22;20069;-72
2023/11/27 09:33:13;;;;;;;13.95;6.47;;;4.10;99.90;;;;;;6270702;22;20043;-73
2023/11/27 09:36:00;;;;;;;12.38;6.43;;;4.30;99.90;;;;;;6269071;22;20058;-73
2023/11/27 09:38:47;;;;;;;8.13;5.88;;;4.20;99.90;;;;;;6248954;22;20011;-73
2023/11/27 09:41:35;;;;;;;8.82;6.93;;;4.20;99.90;;;;;;6270869;22;20441;-71
2023/11/27 09:44:21;;;;;;;9.30;5.75;;;4.20;99.90;;;;;;6268549;22;20016;-72
2023/11/27 09:47:09;;;;;;;7.57;5.60;;;4.30;99.90;;;;;;6270841;22;20475;-72
2023/11/27 09:49:58;;;;;;;7.90;5.00;;;4.30;99.90;;;;;;6271383;22;20027;-72
2023/11/27 09:52:49;;;;;;;9.20;5.68;;;4.30;99.90;;;;;;6271398;22;20042;-72
2023/11/27 09:55:38;;;;;;;11.85;5.97;;;4.40;99.90;;;;;;6270127;22;20058;-73
2023/11/27 09:58:24;;;;;;;11.30;6.07;;;4.40;99.90;;;;;;6271166;22;20004;-73
2023/11/27 10:01:13;;;;;;;8.60;5.55;;;4.40;99.90;;;;;;6269775;22;20012;-74
2023/11/27 10:04:00;;;;;;;10.27;5.43;;;4.50;99.90;;;;;;6268313;22;20308;-73
2023/11/27 10:06:48;;;;;;;7.82;5.88;;;4.60;99.90;;;;;;6268736;22;20008;-73
2023/11/27 10:09:34;;;;;;;10.02;6.30;;;4.60;99.90;;;;;;6247839;22;20069;-74
2023/11/27 10:12:28;;;;;;;10.80;6.13;;;4.70;99.90;;;;;;6247582;22;20379;-71
2023/11/27 10:15:17;;;;;;;8.38;6.13;;;4.60;99.90;;;;;;6246966;22;20441;-72
2023/11/27 10:18:03;;;;;;;8.63;5.93;;;4.70;99.90;;;;;;6269805;22;20399;-73
2023/11/27 10:20:50;;;;;;;8.38;5.18;;;4.80;99.90;;;;;;6271036;22;20007;-72
2023/11/27 10:23:36;;;;;;;8.07;5.68;;;4.90;99.90;;;;;;6269880;22;20016;-73
2023/11/27 10:26:22;;;;;;;8.80;5.53;;;4.80;99.90;;;;;;6264583;22;20011;-76
2023/11/27 10:29:09;;;;;;;8.05;5.20;;;4.90;99.90;;;;;;6265687;22;20454;-75
2023/11/27 10:32:00;;;;;;;12.80;6.00;;;4.90;99.90;;;;;;6268818;22;20198;-75
2023/11/27 10:34:46;;;;;;;13.45;6.53;;;4.90;99.90;;;;;;6268768;22;20011;-74
2023/11/27 10:37:35;;;;;;;10.23;6.15;;;5.00;99.90;;;;;;6267274;22;20254;-74
2023/11/27 10:40:25;;;;;;;7.43;5.38;;;5.00;99.90;;;;;;6269456;22;20085;-73
2023/11/27 10:43:12;;;;;;;13.80;7.15;;;5.00;99.90;;;;;;6266664;22;20434;-73
2023/11/27 10:45:58;;;;;;;10.40;6.20;;;5.10;99.90;;;;;;6268843;22;20043;-73
2023/11/27 10:48:47;;;;;;;12.48;6.25;;;5.10;99.90;;;;;;6245234;22;20015;-73
2023/11/27 10:51:34;;;;;;;9.82;6.28;;;5.10;99.90;;;;;;6269397;22;20394;-73
2023/11/27 10:54:24;;;;;;;9.45;6.20;;;5.20;99.90;;;;;;6248949;22;20045;-72
2023/11/27 10:57:11;;;;;;;10.98;6.55;;;5.20;99.90;;;;;;6270561;22;20011;-72
2023/11/27 10:59:57;;;;;;;10.35;6.43;;;5.30;99.90;;;;;;6269609;22;20079;-72
2023/11/27 11:02:48;;;;;;;10.40;6.53;;;5.30;99.90;;;;;;6270479;22;20008;-72
2023/11/27 11:05:56;;;;;;;10.93;6.20;;;5.30;99.90;;;;;;6249370;22;20035;-73
2023/11/27 11:08:45;;;;;;;10.60;6.65;;;5.40;99.90;;;;;;6269224;22;20023;-72
2023/11/27 11:11:31;;;;;;;12.65;6.97;;;5.40;99.90;;;;;;6269993;22;20065;-72
2023/11/27 11:14:19;;;;;;;10.38;6.90;;;5.40;99.90;;;;;;6270626;22;20435;-73
2023/11/27 11:17:23;;;;;;;9.77;6.60;;;5.50;99.90;;;;;;6271018;22;20011;-72
2023/11/27 11:20:25;;;;;;;10.85;7.50;;;5.50;99.90;;;;;;6269974;22;20011;-74
2023/11/27 11:23:14;;;;;;;12.15;7.15;;;5.50;99.80;;;;;;6268921;22;20166;-74
2023/11/27 11:26:33;;;;;;;15.48;8.52;;;5.50;99.80;;;;;;6268920;22;20018;-74
2023/11/27 11:29:33;;;;;;;14.70;6.85;;;5.50;99.70;;;;;;6269361;22;20284;-74
2023/11/27 11:32:20;;;;;;;12.57;7.95;;;5.50;99.70;;;;;;6247913;22;20004;-73
2023/11/27 11:35:11;;;;;;;11.30;7.10;;;5.40;99.50;;;;;;6269780;22;20011;-73
2023/11/27 11:37:56;;;;;;;10.30;6.78;;;5.40;99.50;;;;;;6269834;22;20153;-73
2023/11/27 11:40:47;;;;;;;10.85;7.55;;;5.30;99.50;;;;;;6248496;22;20011;-73
2023/11/27 11:43:41;;;;;;;10.00;6.53;;;5.30;99.50;;;;;;6269851;22;20309;-74
2023/11/27 11:46:27;;;;;;;9.48;6.45;;;5.30;99.50;;;;;;6268478;22;20012;-74
2023/11/27 11:49:18;;;;;;;9.77;6.25;;;5.30;99.50;;;;;;6268405;22;20074;-73
2023/11/27 11:52:15;;;;;;;11.93;7.40;;;5.20;99.40;;;;;;6269539;22;20487;-73
2023/11/27 11:55:01;;;;;;;11.48;7.30;;;5.10;99.40;;;;;;6269626;22;20019;-73
2023/11/27 11:57:48;;;;;;;10.35;7.22;;;5.10;99.40;;;;;;6246699;22;20008;-73
2023/11/27 12:00:42;;;;;;;10.07;7.30;;;5.00;99.30;;;;;;6248514;22;20016;-73
2023/11/27 12:03:32;;;;;;;9.40;5.68;;;4.90;99.30;;;;;;6270186;22;20338;-73
2023/11/27 12:06:18;;;;;;;8.60;5.95;;;4.90;99.40;;;;;;6270505;22;20079;-73
2023/11/27 12:09:04;;;;;;;10.25;6.15;;;4.90;99.40;;;;;;6269138;22;20058;-73
2023/11/27 12:11:57;;;;;;;10.40;6.50;;;4.90;99.50;;;;;;6269451;22;20010;-74
2023/11/27 12:14:43;;;;;;;10.88;6.72;;;4.90;99.50;;;;;;6268651;22;20084;-73
2023/11/27 12:17:29;;;;;;;11.98;6.82;;;4.90;99.40;;;;;;6268376;22;20011;-73
2023/11/27 12:20:21;;;;;;;9.27;6.25;;;4.90;99.50;;;;;;6270668;22;20086;-73
2023/11/27 12:23:07;;;;;;;10.98;7.63;;;4.80;99.50;;;;;;6269045;22;20023;-73
2023/11/27 12:25:53;;;;;;;10.45;7.28;;;4.80;99.50;;;;;;6269988;22;20023;-73
2023/11/27 12:28:39;;;;;;;10.77;6.88;;;4.80;99.60;;;;;;6268625;22;20098;-74
2023/11/27 12:31:28;;;;;;;11.45;7.95;;;4.80;99.50;;;;;;6270988;22;20072;-73
2023/11/27 12:34:20;;;;;;;10.20;6.22;;;4.70;99.50;;;;;;6249308;22;20444;-73
2023/11/27 12:37:08;;;;;;;9.95;6.35;;;4.70;99.50;;;;;;6248945;22;20085;-73
2023/11/27 12:39:56;;;;;;;10.30;6.30;;;4.70;99.50;;;;;;6273008;22;20396;-73
2023/11/27 12:42:43;;;;;;;10.07;6.43;;;4.60;99.50;;;;;;6270786;22;20023;-73
2023/11/27 12:45:31;;;;;;;10.73;6.32;;;4.70;99.50;;;;;;6271686;22;20173;-73
2023/11/27 12:48:21;;;;;;;11.00;7.57;;;4.60;99.50;;;;;;6270864;22;20011;-73
2023/11/27 12:51:12;;;;;;;11.70;6.97;;;4.70;99.60;;;;;;6270984;22;20027;-73
2023/11/27 12:54:01;;;;;;;11.98;7.40;;;4.60;99.60;;;;;;6271010;22;20008;-74
2023/11/27 12:56:51;;;;;;;10.23;7.28;;;4.60;99.60;;;;;;6270605;22;20043;-74
2023/11/27 12:59:39;;;;;;;10.85;6.75;;;4.70;99.70;;;;;;6270773;22;20065;-74
2023/11/27 13:02:29;;;;;;;10.20;7.13;;;4.70;99.70;;;;;;6249657;22;20090;-74
2023/11/27 13:05:21;;;;;;;10.43;7.00;;;4.70;99.70;;;;;;6271243;22;20453;-73
2023/11/27 13:08:11;;;;;;;9.07;5.95;;;4.70;99.70;;;;;;6269890;22;20015;-74
2023/11/27 13:10:57;;;;;;;10.48;6.70;;;4.70;99.70;;;;;;6270100;22;20026;-74
2023/11/27 13:13:43;;;;;;;9.13;6.38;;;4.70;99.70;;;;;;6248226;22;20008;-73
2023/11/27 13:16:30;;;;;;;11.00;6.88;;;4.60;99.60;;;;;;6270788;22;20378;-74
2023/11/27 13:19:16;;;;;;;10.55;6.68;;;4.60;99.60;;;;;;6272095;22;20066;-73
2023/11/27 13:22:02;;;;;;;9.48;6.53;;;4.60;99.60;;;;;;6269843;22;20012;-74
2023/11/27 13:24:50;;;;;;;11.70;7.00;;;4.60;99.60;;;;;;6270183;22;20353;-73
2023/11/27 13:27:44;;;;;;;10.90;7.13;;;4.50;99.60;;;;;;6248825;22;20041;-73
2023/11/27 13:30:30;;;;;;;11.45;7.05;;;4.60;99.70;;;;;;6248026;22;20020;-73
2023/11/27 13:33:16;;;;;;;11.98;7.57;;;4.60;99.70;;;;;;6270367;22;20007;-73
2023/11/27 13:36:17;;;;;;;12.15;7.30;;;4.50;99.70;;;;;;6246098;22;20095;-72
2023/11/27 13:39:07;;;;;;;10.15;6.78;;;4.60;99.70;;;;;;6269372;22;20043;-73
2023/11/27 13:41:53;;;;;;;12.30;7.18;;;4.60;99.70;;;;;;6247433;22;20031;-72
2023/11/27 13:44:44;;;;;;;11.00;7.45;;;4.60;99.70;;;;;;6270706;22;20031;-72
2023/11/27 13:47:33;;;;;;;10.52;6.55;;;4.50;99.70;;;;;;6248360;22;20004;-73
2023/11/27 13:50:19;;;;;;;11.15;6.53;;;4.50;99.70;;;;;;6269994;22;20069;-73
2023/11/27 13:53:13;;;;;;;14.48;7.97;;;4.50;99.70;;;;;;6272074;22;20012;-72
2023/11/27 13:56:03;;;;;;;10.55;7.38;;;4.50;99.70;;;;;;6250028;22;20043;-72
2023/11/27 13:58:52;;;;;;;10.93;6.95;;;4.50;99.70;;;;;;6270698;22;20003;-71
2023/11/27 14:01:38;;;;;;;12.32;7.60;;;4.60;99.70;;;;;;6270525;22;20108;-72
2023/11/27 14:04:29;;;;;;;9.60;6.28;;;4.60;99.70;;;;;;6270473;22;20008;-72
2023/11/27 14:07:15;;;;;;;8.93;6.28;;;4.60;99.70;;;;;;6269923;22;20012;-72
2023/11/27 14:10:05;;;;;;;11.43;6.82;;;4.60;99.70;;;;;;6268732;22;20023;-71
2023/11/27 14:12:59;;;;;;;10.82;6.45;;;4.50;99.70;;;;;;6270875;22;20007;-72
2023/11/27 14:15:47;;;;;;;9.15;6.47;;;4.60;99.70;;;;;;6269585;22;20110;-72
2023/11/27 14:27:45;;;;;;;8.65;6.03;;;4.50;99.60;;;;;;6271035;22;20511;-73
2023/11/27 14:30:33;;;;;;;9.25;6.50;;;4.40;99.50;;;;;;6268536;22;20015;-72
2023/11/27 14:33:19;;;;;;;11.57;6.38;;;4.50;99.50;;;;;;6269647;22;20397;-71
2023/11/27 14:36:11;;;;;;;9.23;5.35;;;4.50;99.50;;;;;;6269608;22;20023;-73
2023/11/27 14:38:58;;;;;;;10.77;6.10;;;4.50;99.40;;;;;;6269840;22;20400;-73
2023/11/27 14:41:45;;;;;;;6.65;4.53;;;4.40;99.30;;;;;;6247415;22;20015;-74
2023/11/27 14:44:31;;;;;;;10.05;5.60;;;4.40;99.30;;;;;;6269623;22;20000;-74